Current Weather

Livermore Muni

Livermore, California (KLVK)

Report from: Wednesday, May 29, 2024 12:53 AM PDT
Current time: Wednesday, May 29, 2024 1:37 AM PDT

Nearby weather – Weather history – Daily summaries
Weather forecast

Temperature13.3°C (55.9°F)
Dew point7.8°C (46.0°F)
Winds 3 kts (1.5 m/s, 3.5 mph) Northwest (320°)
Visibility10 mi. (16.1 km)
Clouds Sky clear
Altimeter30.06 in.Hg (1018 mB)
Relative humidity69 %
Density altitude-193 ft. (-59 m)
Sea-level pressure101.8 kPa (1018 mB, 30.05 in.Hg)
Max temp last 24 hours25.6°C (78.1°F)
Min temp last 24 hours10.0°C (50.0°F)
Remarks Fully automated report
Automated weather observing station with precipitation discriminator
Flight conditions Visual Meteorological Conditions
Raw dataKLVK 290753Z AUTO 32003KT 10SM CLR 13/08 A3006 RMK AO2 SLP175 T01330078 402560100
An error has occurred. This application may no longer respond until reloaded. Reload 🗙